Latest Weather Observations for Mount Baw Baw

IDV60801

Issued at 9:02 pm EST Tuesday 23 July 2024 (issued every 10 minutes, with the page automatically refreshed every 10 minutes)

About weather observations | Map of weather stations | Latest weather observations for VIC | Other Formats
Station Details ID: 085291 Name: MOUNT BAW BAW Lat: -37.84 Lon: 146.27 Height: 1561.0 m
Data from the previous 72 hours. | See also: Recent months at Mount Baw Baw
Date/Time
EST
Temp
°C
App
Temp
°C
Dew
Point
°C
Rel
Hum
%
Delta-T
°C
Wind Press
QNH
hPa
Press
MSL
hPa
Rain since
9am
mm
Dir  Spd
km/h
Gust
km/h
Spd
kts
Gust
kts
23/09:00pm 0.9 -3.6 -0.4 91 0.5 NNE 13 30 7 16 - - 0.0
23/08:30pm 1.0 -3.8 -0.1 92 0.4 NNE 15 30 8 16 - - 0.0
23/08:00pm 1.0 -3.9 -0.5 90 0.6 N 15 26 8 14 - - 0.0
23/07:30pm 1.1 -3.9 -1.1 85 0.9 NNE 15 30 8 16 - - 0.0
23/07:00pm 1.3 -4.1 -1.3 83 1.0 N 17 28 9 15 - - 0.0
23/06:30pm 1.4 -3.5 -0.8 85 0.9 N 15 26 8 14 - - 0.0
23/06:00pm 1.5 -3.8 -0.9 84 1.0 N 17 37 9 20 - - 0.0
23/05:30pm 1.6 -3.3 -0.5 86 0.8 N 15 30 8 16 - - 0.0
23/05:00pm 1.6 -3.6 0.0 89 0.7 N 17 33 9 18 - - 0.0
23/04:30pm 2.0 -3.2 0.1 87 0.8 N 17 35 9 19 - - 0.0
23/04:00pm 2.5 -2.7 -0.1 83 1.1 N 17 28 9 15 - - 0.0
23/03:30pm 3.0 -1.8 0.4 83 1.1 N 15 24 8 13 - - 0.0
23/03:00pm 3.4 -1.7 0.5 81 1.2 N 17 30 9 16 - - 0.0
23/02:30pm 3.8 -1.4 0.3 78 1.5 N 17 33 9 18 - - 0.0
23/02:00pm 4.1 -1.1 0.3 76 1.6 N 17 33 9 18 - - 0.0
23/01:30pm 4.1 -1.1 0.3 76 1.6 N 17 39 9 21 - - 0.0
23/01:00pm 3.8 -1.3 0.7 80 1.3 N 17 33 9 18 - - 0.0
23/12:30pm 4.6 -0.1 0.9 77 1.6 N 15 28 8 15 - - 0.0
23/12:00pm 3.5 -2.0 0.7 82 1.2 N 19 33 10 18 - - 0.0
23/11:30am 3.6 -1.9 0.8 82 1.2 N 19 46 10 25 - - 0.0
23/11:00am 3.1 -2.0 0.5 83 1.1 N 17 39 9 21 - - 0.0
23/10:30am 2.4 -2.7 0.5 87 0.8 N 17 33 9 18 - - 0.0
23/10:00am 2.3 -3.4 0.4 87 0.8 N 20 43 11 23 - - 0.0
23/09:30am 2.0 -3.7 0.5 90 0.6 N 20 43 11 23 - - 0.0
23/09:00am 1.4 -4.3 0.4 93 0.4 N 20 48 11 26 - - 0.0
23/08:30am 1.1 -4.4 0.5 96 0.2 N 19 32 10 17 - - 0.0
23/08:00am 1.0 -4.5 0.9 99 0.0 N 19 43 10 23 - - 0.0
23/07:30am 1.0 -4.4 1.0 100 0.0 N 19 37 10 20 - - 0.0
23/07:00am 0.9 -4.2 0.9 100 0.0 N 17 33 9 18 - - 0.0
23/06:30am 1.2 -3.5 1.2 100 0.0 NNW 15 30 8 16 - - 0.0
23/06:00am 1.4 -4.0 1.4 100 0.0 NNW 19 33 10 18 - - 0.0
23/05:30am 1.5 -3.9 1.5 100 0.0 NNW 19 35 10 19 - - 0.0
23/05:00am 1.6 -3.7 1.6 100 0.0 NNW 19 32 10 17 - - 0.0
23/04:30am 1.9 -3.0 1.9 100 0.0 NW 17 43 9 23 - - 0.0
23/04:00am 2.0 -2.9 2.0 100 0.0 NNW 17 30 9 16 - - 0.0
23/03:30am 2.0 -2.5 2.0 100 0.0 NNW 15 35 8 19 - - 0.0
23/03:00am 2.0 -2.9 2.0 100 0.0 NNW 17 35 9 19 - - 0.0
23/02:30am 2.2 -2.3 2.2 100 0.0 NNW 15 26 8 14 - - 0.0
23/02:00am 2.5 -1.2 2.5 100 0.0 NW 11 26 6 14 - - 0.0
23/01:30am 2.6 -1.8 2.6 100 0.0 NW 15 28 8 15 - - 0.0
23/01:00am 2.7 -1.7 2.7 100 0.0 NNW 15 30 8 16 - - 0.0
23/12:30am 2.7 -1.7 2.7 100 0.0 NW 15 28 8 15 - - 0.0
23/12:00am 2.9 -1.8 2.9 100 0.0 WNW 17 39 9 21 - - 0.0
 
Date/Time
EST
Temp
°C
App
Temp
°C
Dew
Point
°C
Rel
Hum
%
Delta-T
°C
Wind Press
QNH
hPa
Press
MSL
hPa
Rain since
9am
mm
Dir  Spd
km/h
Gust
km/h
Spd
kts
Gust
kts
22/11:30pm 2.8 -2.3 2.8 100 0.0 NW 19 32 10 17 - - 0.0
22/11:00pm 2.8 -2.3 2.8 100 0.0 WNW 19 33 10 18 - - 0.0
22/10:30pm 2.9 -1.8 2.9 100 0.0 WNW 17 30 9 16 - - 0.0
22/10:00pm 2.9 -1.1 2.9 100 0.0 NW 13 33 7 18 - - 0.0
22/09:30pm 2.9 -1.5 2.9 100 0.0 NW 15 35 8 19 - - 0.0
22/09:00pm 2.8 -2.0 2.8 100 0.0 WNW 17 30 9 16 - - 0.0
22/08:30pm 2.6 -1.8 2.6 100 0.0 WNW 15 28 8 15 - - 0.0
22/08:00pm 2.5 -2.3 2.5 100 0.0 WNW 17 28 9 15 - - 0.0
22/07:30pm 2.4 -2.1 2.4 100 0.0 WNW 15 28 8 15 - - 0.0
22/07:00pm 2.3 -2.6 2.3 100 0.0 WNW 17 33 9 18 - - 0.0
22/06:30pm 2.4 -2.8 2.4 100 0.0 WNW 19 39 10 21 - - 0.0
22/06:00pm 2.4 -2.8 2.4 100 0.0 WNW 19 39 10 21 - - 0.0
22/05:30pm 2.5 -3.3 2.5 100 0.0 WNW 22 44 12 24 - - 0.0
22/05:00pm 2.4 -2.8 2.4 100 0.0 WNW 19 33 10 18 - - 0.0
22/04:30pm 2.4 -2.8 2.4 100 0.0 W 19 35 10 19 - - 0.0
22/04:00pm 2.4 -3.0 2.4 100 0.0 WNW 20 41 11 22 - - 0.0
22/03:30pm 2.4 -2.4 2.4 100 0.0 NW 17 30 9 16 - - 0.0
22/03:00pm 2.3 -2.9 2.3 100 0.0 NW 19 37 10 20 - - 0.0
22/02:30pm 2.4 -2.4 2.4 100 0.0 NW 17 28 9 15 - - 0.0
22/02:00pm 2.4 -2.8 2.4 100 0.0 WNW 19 35 10 19 - - 0.0
22/01:30pm 2.6 -2.2 2.6 100 0.0 WNW 17 35 9 19 - - 0.0
22/01:00pm 2.8 -2.3 2.8 100 0.0 NW 19 43 10 23 - - 0.0
22/12:30pm 3.0 -1.7 3.0 100 0.0 NW 17 30 9 16 - - 0.0
22/12:00pm 3.0 -1.3 3.0 100 0.0 NW 15 28 8 15 - - 0.0
22/11:30am 2.4 -2.1 2.4 100 0.0 NW 15 30 8 16 - - 0.0
22/11:00am 2.4 -2.1 2.4 100 0.0 WNW 15 39 8 21 - - 0.0
22/10:30am 2.0 -3.5 2.0 100 0.0 WNW 20 41 11 22 - - 0.0
22/10:00am 2.2 -3.0 2.2 100 0.0 WNW 19 35 10 19 - - 0.0
22/09:30am 2.3 -2.9 2.3 100 0.0 WNW 19 33 10 18 - - 0.0
22/09:00am 2.2 -3.0 2.2 100 0.0 WNW 19 35 10 19 - - 0.2
22/08:30am 2.2 -3.0 2.2 100 0.0 WNW 19 35 10 19 - - 0.2
22/08:00am 2.0 -3.3 2.0 100 0.0 W 19 32 10 17 - - 0.2
22/07:30am 2.2 -3.0 2.2 100 0.0 W 19 32 10 17 - - 0.2
22/07:00am 2.1 -3.4 2.1 100 0.0 W 20 41 11 22 - - 0.2
22/06:30am 2.1 -3.4 2.1 100 0.0 W 20 41 11 22 - - 0.2
22/06:00am 2.0 -3.5 2.0 100 0.0 W 20 33 11 18 - - 0.2
22/05:30am 2.0 -3.5 2.0 100 0.0 W 20 33 11 18 - - 0.2
22/05:00am 1.9 -3.6 1.9 100 0.0 W 20 37 11 20 - - 0.2
22/04:30am 1.7 -3.8 1.7 100 0.0 W 20 41 11 22 - - 0.2
22/04:00am 1.7 -3.8 1.7 100 0.0 W 20 37 11 20 - - 0.2
22/03:30am 1.8 -3.7 1.8 100 0.0 WNW 20 43 11 23 - - 0.2
22/03:00am 1.8 -3.7 1.8 100 0.0 WNW 20 37 11 20 - - 0.2
22/02:30am 1.7 -3.8 1.7 100 0.0 WNW 20 35 11 19 - - 0.2
22/02:00am 1.7 -3.6 1.7 100 0.0 W 19 33 10 18 - - 0.2
22/01:30am 1.9 -3.4 1.9 100 0.0 W 19 35 10 19 - - 0.2
22/01:00am 1.9 -3.6 1.9 100 0.0 WNW 20 39 11 21 - - 0.2
22/12:30am 1.8 -3.7 1.8 100 0.0 WNW 20 37 11 20 - - 0.2
22/12:00am 1.5 -3.9 1.5 100 0.0 WNW 19 37 10 20 - - 0.2
 
Date/Time
EST
Temp
°C
App
Temp
°C
Dew
Point
°C
Rel
Hum
%
Delta-T
°C
Wind Press
QNH
hPa
Press
MSL
hPa
Rain since
9am
mm
Dir  Spd
km/h
Gust
km/h
Spd
kts
Gust
kts
21/11:30pm 1.4 -4.2 1.4 100 0.0 WNW 20 43 11 23 - - 0.2
21/11:00pm 1.5 -4.1 1.5 100 0.0 NW 20 41 11 22 - - 0.0
21/10:30pm 1.7 -3.8 1.7 100 0.0 WNW 20 48 11 26 - - 0.0
21/10:00pm 1.7 -3.8 1.7 100 0.0 WNW 20 37 11 20 - - 0.0
21/09:30pm 1.5 -3.9 1.5 100 0.0 WNW 19 37 10 20 - - 0.0
21/09:00pm 1.6 -3.7 1.6 100 0.0 W 19 33 10 18 - - 0.0
21/08:30pm 1.8 -4.1 1.8 100 0.0 W 22 43 12 23 - - 0.0
21/08:00pm 1.5 -4.1 1.5 100 0.0 W 20 39 11 21 - - 0.0
21/07:30pm 1.4 -4.5 1.4 100 0.0 W 22 39 12 21 - - 0.0
21/07:00pm 1.1 -4.3 1.1 100 0.0 W 19 41 10 22 - - 0.0
21/06:30pm 1.1 -4.5 1.1 100 0.0 WNW 20 37 11 20 - - 0.0
21/06:00pm 0.8 -1.1 0.8 100 0.0 CALM 0 4 0 2 - - 0.0
21/05:30pm 0.7 -1.2 0.7 100 0.0 CALM 0 4 0 2 - - 0.0
21/05:00pm 0.5 -1.4 0.5 100 0.0 CALM 0 2 0 1 - - 0.0
21/04:30pm 0.6 -1.3 0.6 100 0.0 CALM 0 2 0 1 - - 0.0
21/04:00pm 0.7 -1.2 0.7 100 0.0 CALM 0 0 0 0 - - 0.0
21/03:30pm 0.8 -1.1 0.8 100 0.0 CALM 0 0 0 0 - - 0.0
21/03:00pm 0.8 -1.1 0.8 100 0.0 CALM 0 0 0 0 - - 0.0
21/02:30pm 0.6 -1.3 0.6 100 0.0 CALM 0 0 0 0 - - 0.0
21/02:00pm 0.5 -1.4 0.5 100 0.0 CALM 0 0 0 0 - - 0.0
21/01:30pm 0.4 -1.5 0.4 100 0.0 CALM 0 0 0 0 - - 0.0
21/01:00pm 0.3 -1.6 0.3 100 0.0 CALM 0 0 0 0 - - 0.0
21/12:30pm 0.3 -1.6 0.3 100 0.0 CALM 0 0 0 0 - - 0.0
21/12:00pm 0.2 -1.8 0.2 100 0.0 CALM 0 0 0 0 - - 0.0
21/11:30am 0.1 -1.9 0.1 100 0.0 CALM 0 0 0 0 - - 0.0
21/11:00am 0.0 -2.0 0.0 100 0.0 CALM 0 0 0 0 - - 0.0
21/10:30am 0.0 -2.0 0.0 100 0.0 CALM 0 0 0 0 - - 0.0
21/10:00am -0.1 -2.1 -0.1 100 0.0 CALM 0 0 0 0 - - 0.0
21/09:30am -0.3 -2.3 -0.3 100 0.0 CALM 0 0 0 0 - - 0.0
21/09:00am -0.4 -2.4 -0.4 100 0.0 CALM 0 0 0 0 - - 28.6
21/08:30am -0.5 -2.6 -0.5 100 0.0 CALM 0 0 0 0 - - 28.6
21/08:00am -0.5 -2.6 -0.5 100 0.0 CALM 0 0 0 0 - - 28.6
21/07:30am -0.4 -2.4 -0.4 100 0.0 CALM 0 0 0 0 - - 28.6
21/07:00am -0.6 -2.7 -0.6 100 0.0 CALM 0 0 0 0 - - 28.4
21/06:30am -0.7 -2.8 -0.7 100 0.0 CALM 0 0 0 0 - - 28.4
21/06:00am -0.6 -2.7 -0.6 100 0.0 CALM 0 0 0 0 - - 28.4
21/05:30am -0.7 -2.8 -0.7 100 0.0 CALM 0 0 0 0 - - 28.4
21/05:00am -0.8 -2.9 -0.8 100 0.0 CALM 0 0 0 0 - - 28.4
21/04:30am -0.9 -3.0 -0.9 100 0.0 CALM 0 0 0 0 - - 28.2
21/04:00am -1.2 -3.4 -1.2 100 0.0 CALM 0 0 0 0 - - 28.2
21/03:30am -1.4 -3.6 -1.4 100 0.0 CALM 0 0 0 0 - - 28.2
21/03:00am -1.4 -3.6 -1.4 100 0.0 CALM 0 0 0 0 - - 28.2
21/02:30am -1.2 -3.4 -1.2 100 0.0 CALM 0 0 0 0 - - 28.2
21/02:00am -0.8 -2.9 -0.8 100 0.0 CALM 0 0 0 0 - - 28.0
21/01:30am -0.5 -2.6 -0.5 100 0.0 CALM 0 0 0 0 - - 27.8
21/01:00am -0.5 -2.6 -0.5 100 0.0 CALM 0 0 0 0 - - 26.4
21/12:30am -0.4 -2.4 -0.4 100 0.0 CALM 0 0 0 0 - - 24.6
21/12:00am -0.4 -2.4 -0.4 100 0.0 CALM 0 0 0 0 - - 23.2
 
Date/Time
EST
Temp
°C
App
Temp
°C
Dew
Point
°C
Rel
Hum
%
Delta-T
°C
Wind Press
QNH
hPa
Press
MSL
hPa
Rain since
9am
mm
Dir  Spd
km/h
Gust
km/h
Spd
kts
Gust
kts
20/11:30pm -0.2 -2.2 -0.2 100 0.0 CALM 0 0 0 0 - - 20.6
20/11:00pm -0.1 -2.1 -0.1 100 0.0 CALM 0 0 0 0 - - 17.8
20/10:30pm -0.2 -2.2 -0.2 100 0.0 CALM 0 0 0 0 - - 15.2
20/10:00pm -0.5 -2.6 -0.5 100 0.0 CALM 0 0 0 0 - - 13.8
20/09:30pm -0.3 -2.3 -0.3 100 0.0 CALM 0 0 0 0 - - 13.6

Other formats

Comma delimited format used in spreadsheet applications
http://www.bom.gov.au/fwo/IDV60801/IDV60801.95901.axf

JavaScript Object Notation format (JSON) in row-major order
http://www.bom.gov.au/fwo/IDV60801/IDV60801.95901.json

Data quality

Most of these data are generated automatically and are frequently updated. Quality checks on data are not normally performed. It is possible for incorrect values to appear. Refer to information at About Latest Weather Observations and please check the disclaimer before using these data.